Time;durP1;ratioP1;P1;durP2;ratioP2;P2;SDS_P1;SDS_P2;PMS_P1;PMS_P2;Temp;Humidity;BMP_temperature;BMP_pressure;BME280_temperature;BME280_humidity;BME280_pressure;Samples;Min_cycle;Max_cycle;Signal;HPM_P1;HPM_P2
2022/12/16 00:01:23;;;;;;;993.60;900.10;;;-6.30;99.90;;;;;;5044520;28;20338;-52
2022/12/16 00:03:53;;;;;;;1049.77;945.33;;;-6.30;99.90;;;;;;5046750;28;20296;-52
2022/12/16 00:06:23;;;;;;;986.27;878.93;;;-6.40;99.90;;;;;;5048849;28;20232;-52
2022/12/16 00:08:53;;;;;;;1114.23;935.70;;;-6.50;99.90;;;;;;5048760;28;20213;-53
2022/12/16 00:11:22;;;;;;;1218.47;950.43;;;-6.50;99.90;;;;;;5049275;28;20270;-53
2022/12/16 00:13:51;;;;;;;964.10;799.87;;;-6.50;99.90;;;;;;5048627;28;20206;-52
2022/12/16 00:16:21;;;;;;;1006.17;827.77;;;-6.50;99.90;;;;;;5049580;28;20209;-52
2022/12/16 00:18:50;;;;;;;975.53;883.87;;;-6.50;99.90;;;;;;5048879;28;20213;-53
2022/12/16 00:21:18;;;;;;;946.93;863.83;;;-6.50;99.90;;;;;;5048143;28;20236;-51
2022/12/16 00:23:47;;;;;;;986.60;906.83;;;-6.50;99.90;;;;;;5048597;28;20236;-50
2022/12/16 00:26:16;;;;;;;1003.57;909.90;;;-6.40;99.90;;;;;;5048884;28;20674;-52
2022/12/16 00:28:44;;;;;;;976.20;873.77;;;-6.40;99.90;;;;;;5048613;28;20232;-52
2022/12/16 00:31:12;;;;;;;1006.57;909.17;;;-6.30;99.90;;;;;;5048556;28;20241;-52
2022/12/16 00:33:41;;;;;;;960.37;870.70;;;-6.30;99.90;;;;;;5048376;28;20205;-53
2022/12/16 00:36:10;;;;;;;1033.47;934.10;;;-6.30;99.90;;;;;;5048690;28;20256;-52
2022/12/16 00:38:38;;;;;;;978.37;885.30;;;-6.30;99.90;;;;;;5048696;28;20296;-53
2022/12/16 00:41:06;;;;;;;998.83;902.97;;;-6.30;99.90;;;;;;5048672;28;20737;-53
2022/12/16 00:43:36;;;;;;;1045.83;911.17;;;-6.30;99.90;;;;;;5048614;28;20233;-53
2022/12/16 00:46:04;;;;;;;923.77;837.97;;;-6.30;99.90;;;;;;5048507;28;20973;-53
2022/12/16 00:48:32;;;;;;;1040.87;930.43;;;-6.30;99.90;;;;;;5048779;28;20308;-53
2022/12/16 00:51:01;;;;;;;1104.97;969.97;;;-6.20;99.90;;;;;;5048690;28;20253;-53
2022/12/16 00:53:29;;;;;;;1042.20;939.90;;;-6.20;99.90;;;;;;5042849;28;20214;-52
2022/12/16 00:56:05;;;;;;;1000.50;900.33;;;-6.20;99.90;;;;;;5042914;28;20244;-53
2022/12/16 00:58:33;;;;;;;914.83;828.33;;;-6.10;99.90;;;;;;5048656;28;20209;-52
2022/12/16 01:01:03;;;;;;;1073.93;923.73;;;-6.10;99.90;;;;;;5047200;28;20265;-53
2022/12/16 01:03:31;;;;;;;1056.23;949.97;;;-6.20;99.90;;;;;;5047550;28;20214;-53
2022/12/16 01:06:00;;;;;;;1018.57;922.70;;;-6.20;99.90;;;;;;5048152;28;20283;-51
2022/12/16 01:08:28;;;;;;;997.50;906.80;;;-6.20;99.90;;;;;;5048193;28;20275;-52
2022/12/16 01:10:57;;;;;;;1031.40;932.43;;;-6.20;99.90;;;;;;5039137;28;20308;-52
2022/12/16 01:13:26;;;;;;;990.67;902.10;;;-6.30;99.90;;;;;;5047724;28;20206;-53
2022/12/16 01:15:54;;;;;;;1000.10;913.47;;;-6.30;99.90;;;;;;5047955;28;20235;-53
2022/12/16 01:18:23;;;;;;;994.90;906.73;;;-6.30;99.90;;;;;;5048201;28;20213;-51
2022/12/16 01:20:51;;;;;;;1018.40;925.33;;;-6.30;99.90;;;;;;5048419;28;20300;-53
2022/12/16 01:23:21;;;;;;;1002.00;907.47;;;-6.30;99.90;;;;;;5047913;28;20220;-53
2022/12/16 01:25:53;;;;;;;1011.93;924.83;;;-6.30;99.90;;;;;;5048454;28;20214;-52
2022/12/16 01:28:21;;;;;;;1037.70;943.50;;;-6.30;99.90;;;;;;5048341;28;20308;-52
2022/12/16 01:30:54;;;;;;;1022.83;930.90;;;-6.30;99.90;;;;;;5048354;28;20232;-53
2022/12/16 01:33:23;;;;;;;1011.97;919.20;;;-6.30;99.90;;;;;;5047603;28;20300;-53
2022/12/16 01:35:59;;;;;;;979.13;887.53;;;-6.30;99.90;;;;;;5046428;28;20296;-53
2022/12/16 01:38:27;;;;;;;998.67;909.50;;;-6.40;99.90;;;;;;5048586;28;20209;-52
2022/12/16 01:40:55;;;;;;;983.77;893.27;;;-6.40;99.90;;;;;;5049923;28;20230;-51
2022/12/16 01:43:26;;;;;;;1159.60;999.90;;;-6.40;99.90;;;;;;5051711;28;20208;-53
2022/12/16 01:45:58;;;;;;;983.73;884.97;;;-6.40;99.90;;;;;;5051928;28;20234;-53
2022/12/16 01:48:35;;;;;;;986.83;879.93;;;-6.30;99.90;;;;;;5051877;28;20698;-53
2022/12/16 01:51:08;;;;;;;892.07;801.53;;;-6.40;99.90;;;;;;5051436;28;20678;-52
2022/12/16 01:53:38;;;;;;;1030.60;912.73;;;-6.40;99.90;;;;;;5051328;28;20238;-53
2022/12/16 01:56:06;;;;;;;995.03;895.73;;;-6.40;99.90;;;;;;5051230;28;20293;-52
2022/12/16 01:58:39;;;;;;;988.70;870.90;;;-6.40;99.90;;;;;;5052108;28;20292;-53
2022/12/16 02:01:07;;;;;;;946.63;838.87;;;-6.50;99.90;;;;;;5051554;28;20790;-52
2022/12/16 02:03:38;;;;;;;951.70;847.13;;;-6.50;99.90;;;;;;5051570;28;20268;-52
2022/12/16 02:06:07;;;;;;;995.57;895.53;;;-6.60;99.90;;;;;;5051204;28;20292;-54
2022/12/16 02:08:35;;;;;;;911.57;812.27;;;-6.60;99.90;;;;;;5051384;28;20647;-52
2022/12/16 02:11:32;;;;;;;964.97;863.90;;;-6.60;99.90;;;;;;5051703;28;20287;-53
2022/12/16 02:14:36;;;;;;;892.97;735.50;;;-6.60;99.90;;;;;;5050923;28;20748;-52
2022/12/16 02:17:12;;;;;;;971.50;752.43;;;-6.60;99.90;;;;;;5041143;28;20292;-52
2022/12/16 02:20:32;;;;;;;997.20;805.40;;;-6.70;99.90;;;;;;5051353;28;20201;-52
2022/12/16 02:23:27;;;;;;;1001.63;752.37;;;-6.80;99.90;;;;;;5043631;28;20210;-53
2022/12/16 02:26:17;;;;;;;1096.27;842.87;;;-6.80;99.90;;;;;;5051304;28;20217;-53
2022/12/16 02:29:02;;;;;;;1081.17;826.97;;;-6.80;99.90;;;;;;5050352;28;20293;-53
2022/12/16 02:31:37;;;;;;;1065.17;824.87;;;-6.70;99.90;;;;;;5050728;28;20820;-52
2022/12/16 02:34:15;;;;;;;1183.90;875.57;;;-6.70;99.90;;;;;;5050323;28;20793;-53
2022/12/16 02:36:59;;;;;;;915.60;762.00;;;-6.70;99.90;;;;;;5049160;28;20237;-53
2022/12/16 02:39:35;;;;;;;1113.83;847.53;;;-6.70;99.90;;;;;;5049508;28;20279;-52
2022/12/16 02:42:11;;;;;;;980.40;788.97;;;-6.70;99.90;;;;;;5049819;28;20312;-53
2022/12/16 02:44:48;;;;;;;930.53;829.90;;;-6.70;99.90;;;;;;5050338;28;20800;-54
2022/12/16 02:47:18;;;;;;;901.43;829.60;;;-6.70;99.90;;;;;;5050346;28;20916;-53
2022/12/16 02:49:49;;;;;;;1014.47;918.43;;;-6.60;99.90;;;;;;5051067;28;20205;-54
2022/12/16 02:52:21;;;;;;;1015.67;915.40;;;-6.60;99.90;;;;;;5049019;28;20300;-52
2022/12/16 02:54:54;;;;;;;875.73;799.63;;;-6.50;99.90;;;;;;5050747;28;20263;-53
2022/12/16 02:57:50;;;;;;;984.70;890.77;;;-6.40;99.90;;;;;;5050237;28;20224;-51
2022/12/16 03:00:20;;;;;;;868.03;792.60;;;-6.40;99.90;;;;;;5050060;28;20710;-53
2022/12/16 03:02:57;;;;;;;903.03;820.63;;;-6.30;99.90;;;;;;5049655;28;20729;-53
2022/12/16 03:05:30;;;;;;;985.33;883.63;;;-6.30;99.90;;;;;;5050365;28;20197;-52
2022/12/16 03:08:01;;;;;;;1023.80;928.57;;;-6.30;99.90;;;;;;5050026;28;20253;-53
2022/12/16 03:10:35;;;;;;;879.07;800.30;;;-6.30;99.90;;;;;;5050468;28;20264;-53
2022/12/16 03:13:05;;;;;;;920.77;835.80;;;-6.30;99.90;;;;;;5049472;28;20229;-53
2022/12/16 03:15:35;;;;;;;948.47;864.70;;;-6.30;99.90;;;;;;5050271;28;20206;-53
2022/12/16 03:18:07;;;;;;;928.73;843.57;;;-6.30;99.90;;;;;;5049800;28;20244;-54
2022/12/16 03:20:41;;;;;;;952.07;864.00;;;-6.30;99.90;;;;;;5048073;28;20317;-51
2022/12/16 03:23:15;;;;;;;959.87;871.57;;;-6.40;99.90;;;;;;5049590;28;20293;-52
2022/12/16 03:25:46;;;;;;;1005.00;916.47;;;-6.40;99.90;;;;;;5049509;28;20244;-52
2022/12/16 03:28:28;;;;;;;1014.20;919.13;;;-6.40;99.90;;;;;;5049784;28;20205;-53
2022/12/16 03:31:03;;;;;;;1047.37;935.13;;;-6.50;99.90;;;;;;5049905;28;20312;-52
2022/12/16 03:33:38;;;;;;;928.03;845.27;;;-6.50;99.90;;;;;;5048890;28;20231;-52
2022/12/16 03:36:13;;;;;;;978.17;885.27;;;-6.50;99.90;;;;;;5049634;28;20577;-53
2022/12/16 03:38:43;;;;;;;1008.73;915.23;;;-6.40;99.90;;;;;;5049651;28;20237;-53
2022/12/16 03:41:13;;;;;;;1004.07;911.50;;;-6.50;99.90;;;;;;5049619;28;20229;-53
2022/12/16 03:43:41;;;;;;;998.43;912.10;;;-6.50;99.90;;;;;;5048949;28;20754;-53
2022/12/16 03:46:10;;;;;;;1019.40;928.90;;;-6.50;99.90;;;;;;5049435;28;20289;-52
2022/12/16 03:48:46;;;;;;;926.50;851.53;;;-6.50;99.90;;;;;;5049515;28;20206;-53
2022/12/16 03:51:14;;;;;;;966.33;885.70;;;-6.60;99.90;;;;;;5049573;28;20256;-53
2022/12/16 03:53:42;;;;;;;961.30;875.43;;;-6.60;99.90;;;;;;5048769;28;20248;-53
2022/12/16 03:56:11;;;;;;;1035.10;928.20;;;-6.60;99.90;;;;;;5049356;28;20769;-52
2022/12/16 03:58:39;;;;;;;978.67;894.10;;;-6.60;99.90;;;;;;5049183;28;20243;-52
2022/12/16 04:01:09;;;;;;;1038.90;943.43;;;-6.60;99.90;;;;;;5049216;28;20256;-52
2022/12/16 04:03:39;;;;;;;1033.87;925.63;;;-6.70;99.90;;;;;;5048165;28;20300;-52
2022/12/16 04:06:07;;;;;;;943.87;864.80;;;-6.70;99.90;;;;;;5049115;28;20202;-52
2022/12/16 04:08:36;;;;;;;1014.33;927.37;;;-6.70;99.90;;;;;;5049034;28;20248;-52
2022/12/16 04:25:04;;;;;;;898.83;822.80;;;-6.70;99.90;;;;;;5048787;28;20260;-53
2022/12/16 04:27:32;;;;;;;935.43;857.47;;;-6.70;99.90;;;;;;5049402;28;20237;-52
